Time;durP1;ratioP1;P1;durP2;ratioP2;P2;SDS_P1;SDS_P2;PMS_P1;PMS_P2;Temp;Humidity;BMP_temperature;BMP_pressure;BME280_temperature;BME280_humidity;BME280_pressure;Samples;Min_cycle;Max_cycle;Signal;HPM_P1;HPM_P2
2022/01/30 00:01:55;;;;;;;;;7.25;7.25;;;;;1.17;82.41;101156.75;5157489;27;12308;-69
2022/01/30 00:04:51;;;;;;;;;7.67;7.67;;;;;1.09;81.97;101155.31;5139389;27;11534;-69
2022/01/30 00:07:47;;;;;;;;;7.50;7.50;;;;;1.06;82.51;101150.34;5136440;27;11563;-70
2022/01/30 00:10:44;;;;;;;;;5.67;5.67;;;;;1.02;82.04;101154.69;5136403;27;11451;-70
2022/01/30 00:13:40;;;;;;;;;3.50;3.50;;;;;1.03;82.10;101153.59;5138432;27;12216;-69
2022/01/30 00:16:37;;;;;;;;;5.00;5.00;;;;;1.10;81.90;101154.22;5143311;27;11431;-69
2022/01/30 00:19:47;;;;;;;;;6.00;4.75;;;;;1.14;82.30;101143.63;5157179;27;11421;-69
2022/01/30 00:22:51;;;;;;;;;2.00;2.00;;;;;0.87;82.03;101132.72;5157038;27;11488;-69
2022/01/30 00:25:50;;;;;;;;;5.00;5.00;;;;;0.94;82.07;101140.69;5123797;27;11406;-69
2022/01/30 00:28:46;;;;;;;;;4.75;4.75;;;;;1.03;82.66;101126.34;5136107;27;13546;-69
2022/01/30 00:31:42;;;;;;;;;11.50;10.25;;;;;0.94;81.77;101118.91;5136274;27;11458;-69
2022/01/30 00:34:38;;;;;;;;;5.00;5.00;;;;;1.01;81.66;101105.91;5136394;27;11447;-69
2022/01/30 00:37:39;;;;;;;;;0.25;0.25;;;;;1.04;81.10;101099.94;5135965;27;11440;-69
2022/01/30 00:40:35;;;;;;;;;4.50;4.50;;;;;0.72;81.50;101091.72;5122192;27;11503;-70
2022/01/30 00:43:30;;;;;;;;;9.00;8.00;;;;;0.98;80.62;101095.50;5140017;27;11457;-70
2022/01/30 00:46:26;;;;;;;;;16.75;11.00;;;;;0.79;80.86;101095.06;5155819;27;11430;-69
2022/01/30 00:49:22;;;;;;;;;8.67;8.67;;;;;0.66;81.02;101100.91;5156129;27;11460;-69
2022/01/30 00:52:18;;;;;;;;;5.33;5.33;;;;;0.91;80.59;101095.72;5156350;27;12256;-69
2022/01/30 00:55:13;;;;;;;;;5.00;5.00;;;;;0.78;80.97;101094.25;5154823;27;11534;-69
2022/01/30 00:58:09;;;;;;;;;5.25;5.25;;;;;0.77;80.98;101089.88;5156176;27;11539;-69
2022/01/30 01:01:05;;;;;;;;;10.67;10.67;;;;;0.80;80.41;101080.34;5156086;27;11431;-70
2022/01/30 01:04:00;;;;;;;;;10.00;10.00;;;;;0.90;80.24;101074.19;5140564;27;12176;-70
2022/01/30 01:06:56;;;;;;;;;5.67;5.67;;;;;0.60;80.36;101071.97;5156216;27;11457;-70
2022/01/30 01:10:12;;;;;;;;;4.67;4.67;;;;;0.66;80.89;101066.31;5156503;27;11553;-69
2022/01/30 01:26:01;;;;;;;;;7.00;7.00;;;;;0.58;80.21;101053.16;5155853;27;11410;-69
2022/01/30 01:28:57;;;;;;;;;4.50;4.50;;;;;0.52;79.88;101051.47;5155087;27;11441;-69
2022/01/30 01:31:52;;;;;;;;;2.25;2.25;;;;;0.65;80.10;101051.06;5155519;27;11437;-69
2022/01/30 01:34:48;;;;;;;;;10.00;10.00;;;;;0.67;78.98;101053.53;5141100;27;11437;-70
2022/01/30 01:37:44;;;;;;;;;5.00;5.00;;;;;0.73;78.63;101047.88;5147712;27;11510;-70
2022/01/30 01:40:50;;;;;;;;;7.00;7.00;;;;;0.70;78.25;101056.59;5150480;27;11517;-70
2022/01/30 01:43:50;;;;;;;;;4.75;4.75;;;;;0.59;77.37;101046.66;5138910;27;11459;-69
2022/01/30 01:46:47;;;;;;;;;4.50;4.50;;;;;0.65;78.44;101050.25;5155330;27;11425;-70
2022/01/30 01:49:29;;;;;;;;;7.33;7.00;;;;;0.67;78.03;101048.09;5154667;27;11478;-70
2022/01/30 01:52:26;;;;;;;;;14.67;13.00;;;;;0.78;78.12;101044.41;5155216;27;11462;-69
2022/01/30 01:55:22;;;;;;;;;5.67;5.67;;;;;0.63;78.46;101038.81;5141817;27;12215;-70
2022/01/30 01:58:18;;;;;;;;;8.00;7.00;;;;;0.52;77.49;101035.94;5155015;27;11422;-70
2022/01/30 02:01:14;;;;;;;;;4.00;4.00;;;;;0.46;77.67;101027.97;5155215;27;11456;-69
2022/01/30 02:04:10;;;;;;;;;5.67;5.67;;;;;0.51;77.58;101019.88;5136622;27;11470;-69
2022/01/30 02:10:35;;;;;;;;;3.33;3.33;;;;;0.64;77.41;101024.13;5134107;27;12185;-70
2022/01/30 02:26:44;;;;;;;;;5.67;5.67;;;;;0.52;76.11;100999.75;5153394;27;11415;-69
2022/01/30 02:29:39;;;;;;;;;4.00;4.00;;;;;0.49;76.23;100994.84;5140800;27;11445;-69
2022/01/30 02:32:35;;;;;;;;;4.00;4.00;;;;;0.47;75.93;100992.38;5139841;27;11457;-69
2022/01/30 02:35:31;;;;;;;;;4.00;4.00;;;;;0.63;76.48;100987.91;5131830;27;11423;-69
2022/01/30 02:38:27;;;;;;;;;6.00;6.00;;;;;0.64;76.05;100983.28;5154287;27;11415;-69
2022/01/30 02:41:23;;;;;;;;;5.67;5.33;;;;;0.61;76.55;100978.34;5154239;27;11480;-69
2022/01/30 02:44:26;;;;;;;;;4.00;4.00;;;;;0.43;76.46;100979.53;5154310;27;11443;-69
2022/01/30 02:47:36;;;;;;;;;5.00;5.00;;;;;0.37;76.47;100975.91;5151074;27;11427;-69
2022/01/30 02:53:31;;;;;;;;;5.33;5.33;;;;;0.34;75.78;100951.97;5144248;27;11465;-69
2022/01/30 02:56:27;;;;;;;;;4.33;3.67;;;;;0.42;74.44;100942.50;5120210;27;11445;-69
2022/01/30 02:59:23;;;;;;;;;4.00;4.00;;;;;0.41;74.44;100943.59;5133248;27;11454;-69
2022/01/30 03:02:20;;;;;;;;;5.00;5.00;;;;;0.40;73.01;100945.50;5133305;27;12221;-69
2022/01/30 03:05:16;;;;;;;;;1.33;1.33;;;;;0.53;73.44;100936.06;5133492;27;11441;-69
2022/01/30 03:08:12;;;;;;;;;4.00;4.00;;;;;0.66;72.47;100921.22;5153838;27;11436;-69
2022/01/30 03:11:07;;;;;;;;;5.00;4.00;;;;;0.71;72.28;100924.81;5153935;27;11436;-69
2022/01/30 03:14:05;;;;;;;;;3.50;3.50;;;;;0.71;70.57;100927.53;5132175;27;11537;-69
2022/01/30 03:17:00;;;;;;;;;3.00;2.25;;;;;0.69;70.39;100916.09;5132798;27;11425;-69
2022/01/30 03:19:56;;;;;;;;;4.33;4.33;;;;;0.78;70.98;100903.66;5133150;27;11535;-69
2022/01/30 03:22:52;;;;;;;;;7.00;7.00;;;;;0.76;70.77;100902.25;5133014;27;11451;-69
2022/01/30 03:25:56;;;;;;;;;8.00;7.33;;;;;0.74;70.74;100891.63;5137120;27;11416;-69
2022/01/30 03:28:56;;;;;;;;;5.33;5.33;;;;;0.75;71.37;100906.06;5132773;27;11465;-69
2022/01/30 03:31:53;;;;;;;;;6.50;6.50;;;;;0.86;71.43;100893.34;5132633;27;12335;-69
2022/01/30 03:34:49;;;;;;;;;5.67;5.67;;;;;0.87;71.09;100892.28;5143435;27;11442;-69
2022/01/30 03:37:44;;;;;;;;;7.33;7.33;;;;;0.88;71.30;100885.75;5140642;27;11456;-69
2022/01/30 03:40:40;;;;;;;;;5.00;5.00;;;;;0.88;70.34;100877.56;5132941;27;11591;-69
2022/01/30 03:43:36;;;;;;;;;7.00;7.00;;;;;0.81;71.20;100875.88;5133026;27;12309;-69
2022/01/30 03:46:31;;;;;;;;;5.50;5.50;;;;;0.73;71.64;100872.84;5140499;27;11427;-69
2022/01/30 03:49:27;;;;;;;;;7.00;7.00;;;;;0.40;71.56;100869.31;5153516;27;11428;-69
2022/01/30 03:52:22;;;;;;;;;3.50;1.00;;;;;0.56;71.60;100870.25;5139790;27;11428;-68
2022/01/30 03:55:18;;;;;;;;;7.33;6.67;;;;;0.55;71.07;100874.06;5153429;27;11415;-69
2022/01/30 03:58:14;;;;;;;;;7.00;7.00;;;;;0.76;71.06;100872.31;5134913;27;11441;-68
2022/01/30 04:01:10;;;;;;;;;5.33;5.33;;;;;0.80;71.18;100862.53;5118946;27;11447;-68
2022/01/30 04:04:06;;;;;;;;;7.00;7.00;;;;;0.45;72.40;100861.16;5132915;27;11470;-68
2022/01/30 04:07:02;;;;;;;;;4.33;4.33;;;;;0.67;72.29;100858.34;5145983;27;11461;-68
2022/01/30 04:09:58;;;;;;;;;7.00;7.00;;;;;0.67;72.92;100846.66;5153237;27;11457;-69
2022/01/30 04:12:54;;;;;;;;;9.33;8.33;;;;;0.63;73.21;100842.81;5153347;27;11440;-68
2022/01/30 04:15:50;;;;;;;;;5.33;5.33;;;;;0.62;73.75;100839.28;5134219;27;11532;-68
2022/01/30 04:18:45;;;;;;;;;4.00;4.00;;;;;0.72;73.76;100839.34;5133807;27;11485;-68
2022/01/30 04:21:41;;;;;;;;;6.67;6.67;;;;;0.54;74.57;100835.16;5141638;27;11560;-68
2022/01/30 04:24:37;;;;;;;;;4.00;4.00;;;;;0.45;75.75;100844.03;5153280;27;11440;-68
2022/01/30 04:27:33;;;;;;;;;2.33;2.33;;;;;0.51;75.85;100843.81;5135429;27;11469;-68
2022/01/30 04:30:29;;;;;;;;;2.67;2.67;;;;;0.26;77.41;100838.16;5136366;27;11466;-68
2022/01/30 04:33:25;;;;;;;;;2.33;2.33;;;;;0.34;77.16;100842.31;5122677;27;12280;-68
2022/01/30 04:36:26;;;;;;;;;4.67;4.67;;;;;0.01;79.00;100833.31;5147044;27;11412;-69
2022/01/30 04:58:46;;;;;;;;;6.00;3.33;;;;;-0.24;82.31;100830.31;5148793;27;8825;-69
2022/01/30 05:08:03;;;;;;;;;10.67;10.67;;;;;-0.39;82.46;100839.94;5125256;27;8831;-67
2022/01/30 05:11:02;;;;;;;;;1.67;1.67;;;;;-0.44;82.79;100848.06;5135604;27;9726;-68
2022/01/30 05:13:58;;;;;;;;;5.33;5.33;;;;;-0.45;82.54;100837.44;5138547;27;8823;-69
2022/01/30 05:16:54;;;;;;;;;7.67;7.67;;;;;-0.42;81.95;100842.38;5135381;27;8817;-67
2022/01/30 05:19:50;;;;;;;;;4.67;4.67;;;;;-0.42;81.47;100840.47;5122007;27;8817;-68
2022/01/30 05:22:46;;;;;;;;;4.00;4.00;;;;;-0.57;81.01;100840.28;5136445;27;8819;-68
2022/01/30 05:25:42;;;;;;;;;7.00;7.00;;;;;-0.71;82.44;100841.75;5140550;27;8817;-69
2022/01/30 05:28:38;;;;;;;;;6.33;6.33;;;;;-0.58;82.37;100842.19;5135230;27;8835;-69
2022/01/30 05:31:33;;;;;;;;;6.33;6.33;;;;;-0.51;81.59;100831.13;5122266;27;8883;-69
2022/01/30 05:34:30;;;;;;;;;6.00;6.00;;;;;-0.56;81.09;100831.88;5121814;27;8837;-69
2022/01/30 05:37:26;;;;;;;;;7.00;7.00;;;;;-0.45;81.06;100832.84;5136174;27;8909;-69
2022/01/30 05:40:23;;;;;;;;;6.00;6.00;;;;;-0.74;82.37;100821.34;5141267;27;8842;-69
2022/01/30 05:43:19;;;;;;;;;4.67;4.67;;;;;-0.63;82.54;100833.13;5134794;27;8835;-69
2022/01/30 05:46:27;;;;;;;;;9.00;9.00;;;;;-0.58;82.50;100830.50;5129739;27;8825;-69
2022/01/30 05:49:25;;;;;;;;;2.33;2.33;;;;;-0.64;82.99;100818.75;5151918;27;8829;-69
2022/01/30 05:52:22;;;;;;;;;10.00;10.00;;;;;-0.81;83.11;100817.19;5142163;27;8829;-70
2022/01/30 05:55:17;;;;;;;;;7.67;7.67;;;;;-0.68;82.86;100806.75;5153702;27;8821;-69
2022/01/30 05:58:13;;;;;;;;;9.00;9.00;;;;;-0.75;82.71;100802.59;5134563;27;8850;-69
2022/01/30 06:01:08;;;;;;;;;7.00;7.00;;;;;-0.53;82.43;100800.69;5120714;27;9596;-69
2022/01/30 06:04:04;;;;;;;;;7.00;7.00;;;;;-0.71;81.94;100796.38;5142145;27;8811;-68
2022/01/30 06:07:01;;;;;;;;;9.67;9.67;;;;;-0.71;82.56;100787.41;5134377;27;8811;-69
2022/01/30 06:09:57;;;;;;;;;12.00;12.00;;;;;2.26;100.00;100788.91;5134044;27;8929;-69
2022/01/30 06:12:53;;;;;;;;;16.33;16.33;;;;;3.25;100.00;100784.59;5135165;27;8807;-68
2022/01/30 06:15:21;;;;;;;;;6.50;6.50;;;;;4.08;100.00;100776.47;5138394;27;8833;-68
2022/01/30 06:18:16;;;;;;;;;8.25;8.25;;;;;2.96;96.91;100768.03;5154791;27;12201;-68
2022/01/30 06:21:12;;;;;;;;;9.00;9.00;;;;;3.29;95.27;100772.00;5140832;27;11426;-68
2022/01/30 06:23:41;;;;;;;;;11.00;9.00;;;;;3.60;96.81;100768.03;5155982;27;11446;-68
2022/01/30 06:26:09;;;;;;;;;7.75;7.25;;;;;2.60;89.17;100753.66;5120476;27;11458;-68
2022/01/30 06:28:37;;;;;;;;;10.00;10.00;;;;;3.12;90.52;100755.13;5155729;27;11483;-68
2022/01/30 06:31:06;;;;;;;;;3.50;3.50;;;;;2.95;87.56;100745.38;5137658;27;11515;-68
2022/01/30 06:33:34;;;;;;;;;7.75;7.75;;;;;3.46;91.25;100742.41;5137330;27;11462;-68
2022/01/30 06:36:03;;;;;;;;;4.50;4.50;;;;;2.25;79.84;100736.25;5154256;27;12296;-68
2022/01/30 06:38:31;;;;;;;;;4.25;4.25;;;;;2.79;88.76;100728.22;5155433;27;11516;-68
2022/01/30 06:40:59;;;;;;;;;5.00;5.00;;;;;4.90;93.82;100729.09;5155687;27;11465;-69
2022/01/30 06:43:27;;;;;;;;;8.00;8.00;;;;;3.76;85.17;100724.19;5155591;27;11451;-68
2022/01/30 06:45:56;;;;;;;;;6.25;6.25;;;;;3.85;80.73;100708.78;5137295;27;11507;-68
2022/01/30 06:48:24;;;;;;;;;6.50;6.50;;;;;4.14;83.71;100709.63;5155021;27;11041;-68
2022/01/30 06:50:52;;;;;;;;;7.50;7.50;;;;;3.93;82.21;100707.34;5153926;27;11456;-69
2022/01/30 06:53:19;;;;;;;;;4.75;4.50;;;;;4.43;85.45;100700.59;5155200;27;11419;-68
2022/01/30 06:55:47;;;;;;;;;9.50;7.50;;;;;4.17;77.35;100698.09;5137040;27;10934;-69
2022/01/30 06:58:15;;;;;;;;;7.50;7.50;;;;;4.89;83.62;100695.41;5136883;27;11570;-68
2022/01/30 07:00:43;;;;;;;;;4.00;4.00;;;;;4.55;81.59;100679.09;5155331;27;11448;-68
2022/01/30 07:03:11;;;;;;;;;5.25;5.25;;;;;5.10;81.89;100695.97;5153870;27;11491;-68
2022/01/30 07:05:40;;;;;;;;;12.25;9.50;;;;;4.36;73.63;100697.38;5155158;27;11439;-68
2022/01/30 07:08:08;;;;;;;;;8.50;8.50;;;;;4.09;77.55;100695.97;5155020;27;11473;-68
2022/01/30 07:10:38;;;;;;;;;6.50;6.50;;;;;4.04;76.97;100689.72;5136935;27;11471;-69
2022/01/30 07:13:07;;;;;;;;;3.00;3.00;;;;;4.49;79.49;100677.53;5155047;27;11423;-68
2022/01/30 07:15:34;;;;;;;;;6.25;6.25;;;;;4.56;79.28;100678.00;5155003;27;11561;-69
2022/01/30 07:18:03;;;;;;;;;4.75;4.75;;;;;3.99;74.45;100676.09;5136605;27;11604;-70
2022/01/30 07:20:31;;;;;;;;;4.50;4.50;;;;;3.34;74.19;100668.09;5154917;27;11450;-68
2022/01/30 07:22:59;;;;;;;;;5.00;5.00;;;;;3.44;76.87;100678.97;5154931;27;11483;-68
2022/01/30 07:25:27;;;;;;;;;8.25;8.25;;;;;4.01;80.69;100657.47;5154718;27;11527;-68
2022/01/30 07:27:55;;;;;;;;;7.00;6.00;;;;;3.66;75.39;100664.06;5136297;27;11445;-68
2022/01/30 07:30:22;;;;;;;;;8.50;8.50;;;;;3.33;76.62;100658.28;5154563;27;11453;-68
2022/01/30 07:32:51;;;;;;;;;4.75;4.75;;;;;3.37;76.03;100662.06;5136540;27;11571;-68
2022/01/30 07:35:19;;;;;;;;;6.25;6.25;;;;;3.29;80.49;100646.25;5136409;27;11452;-68
2022/01/30 07:37:52;;;;;;;;;7.75;7.75;;;;;3.48;78.33;100640.97;5154664;27;11562;-69
2022/01/30 07:40:27;;;;;;;;;4.00;4.00;;;;;2.87;75.40;100628.47;5137598;27;11469;-68
2022/01/30 07:42:54;;;;;;;;;4.25;4.25;;;;;3.00;79.44;100630.59;5154632;27;11624;-70
2022/01/30 07:45:24;;;;;;;;;4.00;4.00;;;;;2.84;75.35;100628.22;5136302;27;11552;-68
2022/01/30 07:47:52;;;;;;;;;7.00;7.00;;;;;4.08;80.84;100623.19;5154580;27;11443;-68
2022/01/30 07:50:19;;;;;;;;;7.00;7.00;;;;;3.62;77.86;100620.06;5154442;27;11475;-68
2022/01/30 07:52:48;;;;;;;;;4.00;4.00;;;;;3.95;77.42;100620.31;5154774;27;11438;-68
2022/01/30 07:55:17;;;;;;;;;5.00;5.00;;;;;3.47;72.18;100631.94;5154827;27;11444;-69
2022/01/30 07:57:45;;;;;;;;;7.00;4.75;;;;;3.29;74.78;100618.94;5154274;27;11457;-68
2022/01/30 08:00:14;;;;;;;;;4.75;4.75;;;;;3.08;73.37;100612.00;5154676;27;10928;-68
2022/01/30 08:02:42;;;;;;;;;4.00;4.00;;;;;2.99;74.14;100601.66;5156387;27;12255;-68
2022/01/30 08:05:10;;;;;;;;;4.00;4.00;;;;;2.99;73.96;100592.63;5140416;27;11542;-68
2022/01/30 08:07:39;;;;;;;;;2.50;2.50;;;;;3.10;76.37;100588.72;5158224;27;11461;-69
2022/01/30 08:10:07;;;;;;;;;2.50;2.50;;;;;2.68;72.28;100576.41;5158278;27;12227;-68
2022/01/30 08:12:37;;;;;;;;;4.00;4.00;;;;;2.59;76.61;100585.47;5158518;27;11484;-68
2022/01/30 08:15:06;;;;;;;;;4.00;4.00;;;;;2.81;75.64;100569.50;5140136;27;11553;-68
2022/01/30 08:17:37;;;;;;;;;4.00;4.00;;;;;3.76;79.60;100573.72;5140455;27;11439;-68
2022/01/30 08:20:06;;;;;;;;;4.00;4.00;;;;;3.76;76.84;100577.28;5139678;27;11546;-68
2022/01/30 08:22:51;;;;;;;;;3.50;3.50;;;;;3.81;75.53;100569.00;5157689;27;11465;-69
2022/01/30 08:25:22;;;;;;;;;2.00;2.00;;;;;3.83;76.95;100560.50;5140018;27;11481;-68
2022/01/30 08:27:51;;;;;;;;;3.00;3.00;;;;;3.27;76.47;100555.53;5157957;27;11534;-69
2022/01/30 08:30:20;;;;;;;;;4.00;4.00;;;;;2.87;77.20;100553.91;5139671;27;11500;-69
2022/01/30 08:32:50;;;;;;;;;4.00;4.00;;;;;3.29;76.30;100542.41;5157952;27;12281;-69
2022/01/30 08:35:18;;;;;;;;;3.50;3.50;;;;;3.57;79.57;100540.78;5139688;27;12203;-69
2022/01/30 08:37:47;;;;;;;;;2.00;2.00;;;;;3.42;76.13;100530.81;5139658;27;11640;-69
2022/01/30 08:40:17;;;;;;;;;2.50;2.50;;;;;3.85;81.78;100528.22;5157752;27;12178;-68
2022/01/30 08:42:47;;;;;;;;;2.00;2.00;;;;;4.05;77.79;100527.16;5157904;27;11457;-69
2022/01/30 08:45:17;;;;;;;;;5.00;5.00;;;;;4.00;75.05;100514.38;5139591;27;11426;-68
2022/01/30 08:47:49;;;;;;;;;4.25;4.25;;;;;4.46;76.77;100520.09;5129251;27;12293;-68
2022/01/30 08:50:46;;;;;;;;;4.00;4.00;;;;;3.74;71.88;100493.84;5146269;27;11437;-70
2022/01/30 08:53:41;;;;;;;;;5.00;4.00;;;;;2.08;75.55;100484.72;5149355;27;11415;-68
2022/01/30 08:56:37;;;;;;;;;4.00;4.00;;;;;1.26;79.87;100475.94;5137476;27;11547;-68
2022/01/30 08:59:33;;;;;;;;;1.00;1.00;;;;;1.06;81.82;100474.03;5144397;27;11499;-68
2022/01/30 09:02:28;;;;;;;;;2.00;2.00;;;;;0.93;84.07;100458.25;5136153;27;11436;-68
2022/01/30 09:05:24;;;;;;;;;4.75;4.75;;;;;0.85;84.12;100451.44;5135843;27;11443;-68
2022/01/30 09:08:20;;;;;;;;;4.00;4.00;;;;;0.74;85.20;100444.34;5121561;27;11447;-69
2022/01/30 09:11:15;;;;;;;;;4.67;4.00;;;;;0.83;86.23;100443.53;5135490;27;11541;-69
2022/01/30 09:14:11;;;;;;;;;3.75;3.75;;;;;0.84;86.73;100428.00;5135270;27;11523;-68
2022/01/30 09:17:15;;;;;;;;;2.00;2.00;;;;;0.86;86.46;100420.41;5135024;27;11462;-68
2022/01/30 09:20:12;;;;;;;;;2.75;2.75;;;;;0.90;86.54;100412.50;5129485;27;11427;-69
2022/01/30 09:23:10;;;;;;;;;6.33;6.33;;;;;1.17;86.69;100404.84;5150108;27;11448;-69
2022/01/30 09:26:06;;;;;;;;;4.25;4.25;;;;;1.10;86.30;100404.31;5135096;27;11434;-67
2022/01/30 09:29:01;;;;;;;;;1.75;1.75;;;;;1.14;86.59;100407.28;5144048;27;11409;-67
2022/01/30 09:31:58;;;;;;;;;4.50;4.25;;;;;1.28;86.72;100390.09;5120918;27;11457;-69
2022/01/30 09:34:54;;;;;;;;;7.67;7.00;;;;;1.27;87.54;100382.22;5121243;27;11413;-67
2022/01/30 09:37:50;;;;;;;;;5.00;5.00;;;;;1.28;88.02;100379.22;5139222;27;11454;-68
2022/01/30 09:40:18;;;;;;;;;5.75;3.50;;;;;1.27;88.52;100372.13;5150772;27;11434;-68
2022/01/30 09:42:47;;;;;;;;;5.00;5.00;;;;;1.49;87.61;100365.53;5138485;27;11432;-68
2022/01/30 09:45:42;;;;;;;;;8.25;7.25;;;;;1.50;87.78;100367.97;5141798;27;11435;-69
2022/01/30 09:48:41;;;;;;;;;5.50;4.50;;;;;1.34;88.51;100363.66;5155203;27;11458;-68
2022/01/30 09:51:42;;;;;;;;;1.75;1.75;;;;;1.49;88.70;100355.44;5140487;27;12247;-69
2022/01/30 09:54:38;;;;;;;;;2.50;2.50;;;;;1.53;87.70;100350.22;5152477;27;11418;-69
2022/01/30 09:57:34;;;;;;;;;7.25;7.25;;;;;1.39;88.57;100341.88;5155062;27;11463;-69
2022/01/30 10:00:30;;;;;;;;;4.25;4.25;;;;;1.60;88.06;100343.38;5155299;27;11441;-68
2022/01/30 10:03:29;;;;;;;;;4.00;4.00;;;;;1.58;89.43;100331.94;5150499;27;11446;-69
2022/01/30 10:06:29;;;;;;;;;4.75;4.75;;;;;1.70;87.98;100326.19;5145683;27;11419;-69
2022/01/30 10:09:32;;;;;;;;;5.50;5.50;;;;;1.71;87.31;100316.91;5154942;27;11423;-69
2022/01/30 10:12:28;;;;;;;;;5.00;5.00;;;;;2.04;86.98;100309.88;5153912;27;11427;-68
2022/01/30 10:15:24;;;;;;;;;8.00;8.00;;;;;2.29;85.83;100297.13;5147238;27;11466;-69
2022/01/30 10:18:21;;;;;;;;;5.00;5.00;;;;;2.21;85.97;100307.56;5139896;27;11449;-70
2022/01/30 10:21:20;;;;;;;;;6.50;6.50;;;;;2.27;86.21;100286.50;5141197;27;11427;-69
2022/01/30 10:24:28;;;;;;;;;6.50;5.00;;;;;2.09;86.81;100281.75;5138281;27;11427;-69
2022/01/30 10:27:27;;;;;;;;;7.75;7.75;;;;;2.19;86.46;100277.03;5135046;27;11444;-69
2022/01/30 10:30:23;;;;;;;;;8.00;8.00;;;;;2.41;86.13;100279.31;5122087;27;11464;-69
2022/01/30 10:33:21;;;;;;;;;6.50;6.50;;;;;2.44;85.83;100261.53;5131212;27;12193;-69
2022/01/30 10:36:22;;;;;;;;;6.00;6.00;;;;;2.43;86.34;100252.53;5139779;27;11461;-70
2022/01/30 10:39:23;;;;;;;;;10.75;10.75;;;;;2.35;87.14;100247.69;5148083;27;11524;-69
2022/01/30 10:42:43;;;;;;;;;7.00;7.00;;;;;2.44;87.22;100242.44;5142848;27;11491;-68
2022/01/30 10:45:38;;;;;;;;;5.50;5.50;;;;;2.59;86.62;100241.47;5155097;27;11536;-67
2022/01/30 10:48:34;;;;;;;;;8.75;8.25;;;;;2.82;86.35;100234.41;5143594;27;11435;-68
2022/01/30 10:51:31;;;;;;;;;8.25;8.00;;;;;2.69;86.02;100225.81;5152437;27;11495;-69
2022/01/30 10:54:32;;;;;;;;;11.75;10.25;;;;;2.87;85.96;100212.50;5140264;27;12243;-70
2022/01/30 10:57:27;;;;;;;;;8.00;7.50;;;;;2.84;86.32;100211.16;5154059;27;11419;-69
2022/01/30 11:00:39;;;;;;;;;5.50;5.00;;;;;2.84;85.83;100205.72;5132126;27;11426;-68
2022/01/30 11:03:50;;;;;;;;;10.25;10.25;;;;;2.77;86.08;100203.31;5145600;27;11431;-69
2022/01/30 11:06:46;;;;;;;;;10.50;10.50;;;;;2.63;87.09;100202.38;5129275;27;11469;-68
2022/01/30 11:10:06;;;;;;;;;8.75;8.75;;;;;2.87;87.06;100193.38;5133051;27;11468;-69
2022/01/30 11:13:08;;;;;;;;;12.00;11.00;;;;;2.64;88.34;100184.09;5135505;27;11457;-69
2022/01/30 11:19:20;;;;;;;;;10.50;9.25;;;;;2.89;87.92;100172.84;5140028;27;11567;-68
2022/01/30 11:22:22;;;;;;;;;8.25;8.25;;;;;2.82;87.69;100161.47;5132903;27;11500;-68
2022/01/30 11:25:20;;;;;;;;;9.00;9.00;;;;;3.03;87.53;100162.84;5143906;27;11425;-69
2022/01/30 11:28:17;;;;;;;;;8.00;8.00;;;;;3.16;87.13;100160.50;5138595;27;11409;-70
2022/01/30 11:31:16;;;;;;;;;11.25;11.25;;;;;3.24;87.05;100147.00;5138776;27;11439;-70
2022/01/30 11:33:58;;;;;;;;;7.75;7.75;;;;;3.33;86.87;100149.88;5111567;27;11446;-69
2022/01/30 11:36:57;;;;;;;;;8.75;8.75;;;;;3.18;87.49;100147.34;5140704;27;11451;-70
2022/01/30 11:39:54;;;;;;;;;16.75;16.75;;;;;3.31;87.20;100141.16;5137185;27;12238;-71
2022/01/30 11:42:51;;;;;;;;;15.25;14.25;;;;;3.16;87.87;100134.00;5134524;27;11479;-70
2022/01/30 11:46:16;;;;;;;;;11.25;11.25;;;;;3.25;87.42;100129.47;5123591;27;11591;-71
2022/01/30 11:49:13;;;;;;;;;11.00;9.00;;;;;3.32;87.49;100142.78;5122922;27;12289;-69
2022/01/30 11:52:11;;;;;;;;;10.50;10.50;;;;;3.24;87.18;100137.97;5141137;27;11631;-69
2022/01/30 11:55:41;;;;;;;;;10.00;10.00;;;;;3.35;87.58;100125.78;5124453;27;11586;-70
2022/01/30 11:58:49;;;;;;;;;10.00;10.00;;;;;3.19;88.73;100125.19;5123729;27;11482;-71
2022/01/30 12:01:45;;;;;;;;;11.75;11.75;;;;;3.15;88.88;100126.91;5150181;27;11575;-69
2022/01/30 12:04:57;;;;;;;;;9.25;9.25;;;;;3.29;88.11;100118.75;5130268;27;11455;-70
2022/01/30 12:07:52;;;;;;;;;10.50;10.00;;;;;3.15;88.67;100110.50;5122977;27;11533;-69
2022/01/30 12:10:48;;;;;;;;;9.50;9.50;;;;;3.16;88.87;100101.19;5148198;27;11481;-70
2022/01/30 12:13:44;;;;;;;;;12.50;12.50;;;;;3.21;88.99;100097.56;5137783;27;11423;-69
2022/01/30 12:16:51;;;;;;;;;8.00;8.00;;;;;3.08;89.58;100098.31;5127453;27;11633;-70
2022/01/30 12:19:50;;;;;;;;;21.75;21.50;;;;;3.30;89.64;100093.06;5137094;27;11450;-70
2022/01/30 12:22:46;;;;;;;;;50.00;41.33;;;;;3.48;89.29;100089.50;5136474;27;11468;-71
2022/01/30 12:25:53;;;;;;;;;70.00;58.33;;;;;3.52;89.00;100081.50;5136496;27;9610;-71
2022/01/30 12:28:53;;;;;;;;;14.25;14.25;;;;;3.72;88.26;100078.44;5142091;27;8825;-70
2022/01/30 12:31:50;;;;;;;;;14.00;13.00;;;;;3.48;87.39;100075.81;5142996;27;11540;-70
2022/01/30 12:35:06;;;;;;;;;63.67;52.00;;;;;3.72;87.97;100072.97;5140657;27;11506;-70
2022/01/30 12:38:02;;;;;;;;;16.75;15.75;;;;;3.63;87.13;100072.84;5147443;27;11501;-71
2022/01/30 12:40:58;;;;;;;;;34.25;32.75;;;;;3.81;86.97;100059.41;5129967;27;11488;-70
2022/01/30 12:43:57;;;;;;;;;19.75;19.75;;;;;3.75;86.07;100055.94;5150730;27;11533;-70
2022/01/30 12:46:53;;;;;;;;;17.25;17.00;;;;;3.79;86.31;100054.25;5150118;27;12228;-71
2022/01/30 12:49:52;;;;;;;;;11.50;11.50;;;;;3.94;83.87;100053.16;5137607;27;11484;-70
2022/01/30 12:52:50;;;;;;;;;12.25;12.25;;;;;3.82;82.94;100050.06;5135637;27;11483;-71
2022/01/30 12:55:46;;;;;;;;;12.50;12.50;;;;;3.71;81.83;100054.13;5135690;27;11493;-70
2022/01/30 12:58:48;;;;;;;;;17.75;15.75;;;;;3.74;79.85;100051.59;5135602;27;11469;-69
2022/01/30 13:01:46;;;;;;;;;18.50;17.25;;;;;3.64;78.42;100057.25;5121807;27;11490;-69
2022/01/30 13:04:41;;;;;;;;;16.50;16.50;;;;;3.71;78.32;100045.91;5121659;27;11477;-71
2022/01/30 13:07:37;;;;;;;;;25.00;24.50;;;;;3.47;78.01;100052.34;5135225;27;11689;-70
2022/01/30 13:10:33;;;;;;;;;10.00;10.00;;;;;3.13;78.68;100055.31;5133308;27;11538;-71
2022/01/30 13:13:50;;;;;;;;;10.50;10.50;;;;;3.34;78.17;100058.56;5118132;27;11497;-72
2022/01/30 13:16:50;;;;;;;;;22.00;15.25;;;;;3.32;79.34;100068.97;5122709;27;11436;-71
2022/01/30 13:19:46;;;;;;;;;17.75;17.75;;;;;3.03;82.72;100055.50;5129701;27;11485;-71
2022/01/30 13:22:43;;;;;;;;;19.00;19.00;;;;;3.04;82.92;100060.66;5142854;27;11501;-70
2022/01/30 13:25:39;;;;;;;;;11.75;10.00;;;;;2.57;84.80;100047.13;5135605;27;11562;-72
2022/01/30 13:28:36;;;;;;;;;15.50;13.00;;;;;2.24;87.22;100063.38;5132447;27;12176;-69
2022/01/30 13:31:13;;;;;;;;;6.25;6.25;;;;;2.20;87.53;100059.59;5117965;27;11515;-69
2022/01/30 13:34:18;;;;;;;;;8.75;8.75;;;;;2.26;88.35;100052.97;5134974;27;11425;-70
2022/01/30 13:37:18;;;;;;;;;3.50;3.00;;;;;2.21;87.85;100031.19;5121072;27;11467;-70
2022/01/30 13:40:25;;;;;;;;;8.00;8.00;;;;;2.06;88.52;100045.00;5134894;27;11568;-71
2022/01/30 13:43:25;;;;;;;;;10.75;9.50;;;;;2.22;89.22;100025.47;5125430;27;12197;-71
2022/01/30 13:49:43;;;;;;;;;8.75;8.75;;;;;1.92;90.42;100018.44;5133776;27;11468;-72
2022/01/30 13:52:39;;;;;;;;;7.75;7.75;;;;;2.18;88.76;100018.97;5135063;27;11430;-70
2022/01/30 13:55:37;;;;;;;;;8.00;8.00;;;;;2.00;90.20;100013.47;5134552;27;11470;-70
2022/01/30 13:58:37;;;;;;;;;11.25;9.75;;;;;1.67;90.05;100011.34;5139296;27;11439;-70
2022/01/30 14:01:33;;;;;;;;;7.50;7.50;;;;;1.81;90.52;100019.66;5140884;27;11532;-69
2022/01/30 14:04:34;;;;;;;;;5.00;5.00;;;;;1.88;89.51;100022.84;5134001;27;11497;-71
2022/01/30 14:07:30;;;;;;;;;7.25;7.25;;;;;1.64;90.90;100011.09;5134204;27;11445;-69
2022/01/30 14:10:33;;;;;;;;;4.25;4.25;;;;;1.68;90.58;100006.69;5142585;27;11515;-70
2022/01/30 14:13:07;;;;;;;;;3.75;3.75;;;;;1.60;90.58;99997.22;5144886;27;12298;-69
2022/01/30 14:16:05;;;;;;;;;8.50;8.50;;;;;1.77;89.89;99999.53;5120440;27;11480;-69
2022/01/30 14:19:01;;;;;;;;;5.50;5.50;;;;;1.94;88.65;99980.78;5145433;27;11536;-71
2022/01/30 14:22:18;;;;;;;;;5.50;5.50;;;;;1.91;88.95;99992.25;5148770;27;11591;-71
2022/01/30 14:25:18;;;;;;;;;7.00;7.00;;;;;1.77;89.30;99980.44;5141100;27;12270;-71
2022/01/30 14:27:46;;;;;;;;;9.50;9.50;;;;;1.84;88.93;99989.09;5142783;27;11477;-71
2022/01/30 14:30:42;;;;;;;;;8.50;8.50;;;;;1.83;89.65;99982.00;5142624;27;12154;-71